createdAt,value
2018-12-06T00:00:47.464Z,15.26
2018-12-06T00:01:49.207Z,15.25
2018-12-06T00:02:50.973Z,15.27
2018-12-06T00:03:52.946Z,15.26
2018-12-06T00:04:54.707Z,15.25
2018-12-06T00:05:56.470Z,15.26
2018-12-06T00:06:58.222Z,15.26
2018-12-06T00:08:01.632Z,15.25
2018-12-06T00:09:04.638Z,15.24
2018-12-06T00:10:07.449Z,15.25
2018-12-06T00:11:09.201Z,15.25
2018-12-06T00:12:10.962Z,15.23
2018-12-06T00:13:12.742Z,15.24
2018-12-06T00:14:14.493Z,15.23
2018-12-06T00:15:16.244Z,15.23
2018-12-06T00:16:18.004Z,15.24
2018-12-06T00:17:19.765Z,15.25
2018-12-06T00:18:21.528Z,15.23
2018-12-06T00:19:23.276Z,15.24
2018-12-06T00:20:25.018Z,15.24
2018-12-06T00:21:26.784Z,15.24
2018-12-06T00:22:28.554Z,15.22
2018-12-06T00:23:30.324Z,15.22
2018-12-06T00:24:32.089Z,15.23
2018-12-06T00:25:33.844Z,15.23
2018-12-06T00:26:35.626Z,15.24
2018-12-06T00:27:37.388Z,15.22
2018-12-06T00:28:39.242Z,15.22
2018-12-06T00:29:40.990Z,15.23
2018-12-06T00:30:42.749Z,15.22
2018-12-06T00:31:44.502Z,15.21
2018-12-06T00:32:46.321Z,15.22
2018-12-06T00:33:48.235Z,15.21
2018-12-06T00:34:50.010Z,15.21
2018-12-06T00:35:51.761Z,15.21
2018-12-06T00:36:53.526Z,15.21
2018-12-06T00:37:55.293Z,15.21
2018-12-06T00:38:57.051Z,15.22
2018-12-06T00:39:58.793Z,15.21
2018-12-06T00:41:00.552Z,15.24
2018-12-06T00:42:02.308Z,15.21
2018-12-06T00:43:04.069Z,15.22
2018-12-06T00:44:05.846Z,15.22
2018-12-06T00:45:07.588Z,15.21
2018-12-06T00:46:09.346Z,15.21
2018-12-06T00:47:11.096Z,15.21
2018-12-06T00:48:12.859Z,15.22
2018-12-06T00:49:14.614Z,15.20
2018-12-06T00:50:16.375Z,15.21
2018-12-06T00:51:18.144Z,15.21
2018-12-06T00:52:19.914Z,15.21
2018-12-06T00:53:21.683Z,15.20
2018-12-06T00:54:23.452Z,15.21
2018-12-06T00:55:25.204Z,15.20
2018-12-06T00:56:26.948Z,15.21
2018-12-06T00:57:28.699Z,15.20
2018-12-06T00:58:30.452Z,15.19
2018-12-06T00:59:32.226Z,15.20
2018-12-06T01:00:33.980Z,15.19
2018-12-06T01:01:35.725Z,15.20
2018-12-06T01:02:38.740Z,15.19
2018-12-06T01:03:40.526Z,15.20
2018-12-06T01:04:42.280Z,15.20
2018-12-06T01:05:44.042Z,15.19
2018-12-06T01:06:45.794Z,15.19
2018-12-06T01:07:47.558Z,15.20
2018-12-06T01:08:50.654Z,15.20
2018-12-06T01:09:52.519Z,15.19
2018-12-06T01:10:54.284Z,15.19
2018-12-06T01:11:56.030Z,15.20
2018-12-06T01:13:00.754Z,15.19
2018-12-06T01:14:03.792Z,15.19
2018-12-06T01:15:05.544Z,15.18
2018-12-06T01:16:07.332Z,15.19
2018-12-06T01:17:10.401Z,15.18
2018-12-06T01:18:12.622Z,15.17
2018-12-06T01:19:14.399Z,15.19
2018-12-06T01:20:16.152Z,15.18
2018-12-06T01:21:18.448Z,15.18
2018-12-06T01:22:20.198Z,15.17
2018-12-06T01:23:21.958Z,15.19
2018-12-06T01:24:23.734Z,15.17
2018-12-06T01:25:25.578Z,15.19
2018-12-06T01:26:27.324Z,15.18
2018-12-06T01:27:29.095Z,15.17
2018-12-06T01:28:30.864Z,15.17
2018-12-06T01:29:32.622Z,15.17
2018-12-06T01:30:34.398Z,15.17
2018-12-06T01:31:36.171Z,15.16
2018-12-06T01:32:37.941Z,15.16
2018-12-06T01:33:39.708Z,15.16
2018-12-06T01:34:41.476Z,15.16
2018-12-06T01:35:43.238Z,15.16
2018-12-06T01:36:45.038Z,15.17
2018-12-06T01:37:46.857Z,15.17
2018-12-06T01:38:48.613Z,15.17
2018-12-06T01:39:50.399Z,15.16
2018-12-06T01:40:52.156Z,15.16
2018-12-06T01:41:53.910Z,15.16
2018-12-06T01:42:55.666Z,15.17
2018-12-06T01:43:57.436Z,15.17
2018-12-06T01:44:59.192Z,15.16
2018-12-06T01:46:00.952Z,15.16
2018-12-06T01:47:02.697Z,15.16
2018-12-06T01:48:04.451Z,15.16
2018-12-06T01:49:06.233Z,15.15
2018-12-06T01:50:09.144Z,15.15
2018-12-06T01:51:10.902Z,15.16
2018-12-06T01:52:12.652Z,15.14
2018-12-06T01:53:14.520Z,15.15
2018-12-06T01:54:16.276Z,15.15
2018-12-06T01:55:18.039Z,15.14
2018-12-06T01:56:21.465Z,15.14
2018-12-06T01:57:23.222Z,15.14
2018-12-06T01:58:25.094Z,15.14
2018-12-06T01:59:26.856Z,15.13
2018-12-06T02:00:28.607Z,15.13
2018-12-06T02:01:30.364Z,15.14
2018-12-06T02:02:33.642Z,15.14
2018-12-06T02:03:35.410Z,15.14
2018-12-06T02:04:37.170Z,15.14
2018-12-06T02:05:38.922Z,15.14
2018-12-06T02:06:40.683Z,15.13
2018-12-06T02:07:42.432Z,15.14
2018-12-06T02:08:44.196Z,15.14
2018-12-06T02:09:46.495Z,15.13
2018-12-06T02:10:48.260Z,15.13
2018-12-06T02:11:50.016Z,15.13
2018-12-06T02:12:51.794Z,15.14
2018-12-06T02:13:53.552Z,15.14
2018-12-06T02:14:55.330Z,15.14
2018-12-06T02:15:57.092Z,15.13
2018-12-06T02:16:58.846Z,15.13
2018-12-06T02:18:02.026Z,15.12
2018-12-06T02:19:03.821Z,15.13
2018-12-06T02:20:05.580Z,15.13
2018-12-06T02:21:08.318Z,15.13
2018-12-06T02:22:10.086Z,15.13
2018-12-06T02:23:11.848Z,15.12
2018-12-06T02:24:13.621Z,15.14
2018-12-06T02:25:15.395Z,15.13
2018-12-06T02:26:17.165Z,15.12
2018-12-06T02:27:18.929Z,15.11
2018-12-06T02:28:20.756Z,15.12
2018-12-06T02:29:22.508Z,15.12
2018-12-06T02:30:24.290Z,15.12
2018-12-06T02:31:26.054Z,15.11
2018-12-06T02:32:27.810Z,15.11
2018-12-06T02:33:29.556Z,15.12
2018-12-06T02:34:31.399Z,15.13
2018-12-06T02:35:33.212Z,15.13
2018-12-06T02:36:35.009Z,15.12
2018-12-06T02:37:36.795Z,15.11
2018-12-06T02:38:38.528Z,15.12
2018-12-06T02:39:40.298Z,15.13
2018-12-06T02:40:43.660Z,15.11
2018-12-06T02:41:45.425Z,15.12
2018-12-06T02:42:47.184Z,15.12
2018-12-06T02:43:50.233Z,15.12
2018-12-06T02:44:52.032Z,15.11
2018-12-06T02:45:53.794Z,15.11
2018-12-06T02:46:55.557Z,15.12
2018-12-06T02:47:57.310Z,15.10
2018-12-06T02:49:00.369Z,15.12
2018-12-06T02:50:02.145Z,15.12
2018-12-06T02:51:04.007Z,15.11
2018-12-06T02:52:06.996Z,15.11
2018-12-06T02:53:08.761Z,15.12
2018-12-06T02:54:10.515Z,15.11
2018-12-06T02:55:12.260Z,15.11
2018-12-06T02:56:14.003Z,15.11
2018-12-06T02:57:15.764Z,15.11
2018-12-06T02:58:17.533Z,15.10
2018-12-06T02:59:19.279Z,15.10
2018-12-06T03:00:21.055Z,15.10
2018-12-06T03:01:22.822Z,15.09
2018-12-06T03:02:24.580Z,15.10
2018-12-06T03:03:26.342Z,15.10
2018-12-06T03:04:28.102Z,15.10
2018-12-06T03:05:29.860Z,15.10
2018-12-06T03:06:31.629Z,15.09
2018-12-06T03:07:33.389Z,15.08
2018-12-06T03:08:35.145Z,15.10
2018-12-06T03:09:36.910Z,15.09
2018-12-06T03:10:38.665Z,15.10
2018-12-06T03:11:40.424Z,15.09
2018-12-06T03:12:42.192Z,15.10
2018-12-06T03:13:43.956Z,15.09
2018-12-06T03:14:45.723Z,15.10
2018-12-06T03:15:47.490Z,15.10
2018-12-06T03:16:49.260Z,15.09
2018-12-06T03:17:51.008Z,15.09
2018-12-06T03:18:52.757Z,15.08
2018-12-06T03:19:54.509Z,15.09
2018-12-06T03:20:56.255Z,15.08
2018-12-06T03:21:58.024Z,15.08
2018-12-06T03:22:59.781Z,15.09
2018-12-06T03:24:01.540Z,15.08
2018-12-06T03:25:03.316Z,15.08
2018-12-06T03:26:05.068Z,15.08
2018-12-06T03:27:06.811Z,15.08
2018-12-06T03:28:08.579Z,15.08
2018-12-06T03:29:10.329Z,15.09
2018-12-06T03:30:12.127Z,15.08
2018-12-06T03:31:13.894Z,15.07
2018-12-06T03:32:15.661Z,15.08
2018-12-06T03:33:17.419Z,15.07
2018-12-06T03:34:19.177Z,15.08
2018-12-06T03:35:20.919Z,15.08
2018-12-06T03:36:22.683Z,15.08
2018-12-06T03:37:24.455Z,15.08
2018-12-06T03:38:26.199Z,15.06
2018-12-06T03:39:27.947Z,15.07
2018-12-06T03:40:29.728Z,15.06
2018-12-06T03:41:31.467Z,15.07
2018-12-06T03:42:33.218Z,15.07
2018-12-06T03:43:35.082Z,15.06
2018-12-06T03:44:36.867Z,15.06
2018-12-06T03:45:38.650Z,15.05
2018-12-06T03:46:40.422Z,15.05
2018-12-06T03:47:42.183Z,15.05
2018-12-06T03:48:43.931Z,15.05
2018-12-06T03:49:45.694Z,15.06
2018-12-06T03:50:47.471Z,15.06
2018-12-06T03:51:49.232Z,15.06
2018-12-06T03:52:50.995Z,15.07
2018-12-06T03:53:52.743Z,15.06
2018-12-06T03:54:54.508Z,15.07
2018-12-06T03:55:56.271Z,15.06
2018-12-06T03:56:58.044Z,15.06
2018-12-06T03:57:59.919Z,15.05
2018-12-06T03:59:01.689Z,15.06
2018-12-06T04:00:04.791Z,15.05
2018-12-06T04:01:06.570Z,15.06
2018-12-06T04:02:08.341Z,15.05
2018-12-06T04:03:10.102Z,15.06
2018-12-06T04:04:11.957Z,15.05
2018-12-06T04:05:13.731Z,15.05
2018-12-06T04:06:15.500Z,15.05
2018-12-06T04:07:17.259Z,15.05
2018-12-06T04:08:19.019Z,15.05
2018-12-06T04:09:20.782Z,15.04
2018-12-06T04:10:22.542Z,15.04
2018-12-06T04:11:24.320Z,15.06
2018-12-06T04:12:26.074Z,15.05
2018-12-06T04:13:27.824Z,15.05
2018-12-06T04:14:29.582Z,15.04
2018-12-06T04:15:31.337Z,15.04
2018-12-06T04:16:33.102Z,15.04
2018-12-06T04:17:35.080Z,15.04
2018-12-06T04:18:36.842Z,15.04
2018-12-06T04:19:38.619Z,15.04
2018-12-06T04:20:40.404Z,15.05
2018-12-06T04:21:43.384Z,15.05
2018-12-06T04:22:45.148Z,15.04
2018-12-06T04:23:46.905Z,15.04
2018-12-06T04:24:48.653Z,15.04
2018-12-06T04:25:50.414Z,15.04
2018-12-06T04:26:52.175Z,15.03
2018-12-06T04:27:53.932Z,15.04
2018-12-06T04:28:55.679Z,15.04
2018-12-06T04:29:57.443Z,15.03
2018-12-06T04:30:59.207Z,15.04
2018-12-06T04:32:00.976Z,15.04
2018-12-06T04:33:02.736Z,15.04
2018-12-06T04:34:04.497Z,15.03
2018-12-06T04:35:06.253Z,15.03
2018-12-06T04:36:08.031Z,15.05
2018-12-06T04:37:09.784Z,15.04
2018-12-06T04:38:11.545Z,15.03
2018-12-06T04:39:13.301Z,15.02
2018-12-06T04:40:15.056Z,15.03
2018-12-06T04:41:16.822Z,15.02
2018-12-06T04:42:19.080Z,15.03
2018-12-06T04:43:20.884Z,15.02
2018-12-06T04:44:22.686Z,15.04
2018-12-06T04:45:24.463Z,15.02
2018-12-06T04:46:26.230Z,15.02
2018-12-06T04:47:27.987Z,15.01
2018-12-06T04:48:29.748Z,15.01
2018-12-06T04:49:31.635Z,15.01
2018-12-06T04:50:33.404Z,15.00
2018-12-06T04:51:35.155Z,15.01
2018-12-06T04:52:36.946Z,15.01
2018-12-06T04:53:38.761Z,15.00
2018-12-06T04:54:40.551Z,15.01
2018-12-06T04:55:42.330Z,15.01
2018-12-06T04:56:44.098Z,15.01
2018-12-06T04:57:45.848Z,15.00
2018-12-06T04:58:47.618Z,15.01
2018-12-06T04:59:49.378Z,15.00
2018-12-06T05:00:51.146Z,15.00
2018-12-06T05:01:52.910Z,15.00
2018-12-06T05:02:54.677Z,15.01
2018-12-06T05:03:56.442Z,15.01
2018-12-06T05:04:58.298Z,15.01
2018-12-06T05:06:00.064Z,15.01
2018-12-06T05:07:02.550Z,15.01
2018-12-06T05:08:04.295Z,15.01
2018-12-06T05:09:06.038Z,15.01
2018-12-06T05:10:07.786Z,15.00
2018-12-06T05:11:09.548Z,15.00
2018-12-06T05:12:11.316Z,15.00
2018-12-06T05:13:13.080Z,14.99
2018-12-06T05:14:14.866Z,14.99
2018-12-06T05:15:16.612Z,14.99
2018-12-06T05:16:18.374Z,15.00
2018-12-06T05:17:20.136Z,14.99
2018-12-06T05:18:21.906Z,15.00
2018-12-06T05:19:23.662Z,15.00
2018-12-06T05:20:25.408Z,15.00
2018-12-06T05:21:27.169Z,14.98
2018-12-06T05:22:28.931Z,14.99
2018-12-06T05:23:30.687Z,15.00
2018-12-06T05:24:32.443Z,14.99
2018-12-06T05:25:34.496Z,14.99
2018-12-06T05:26:36.237Z,14.99
2018-12-06T05:27:37.998Z,15.00
2018-12-06T05:28:39.755Z,15.15
2018-12-06T05:29:41.518Z,15.20
2018-12-06T05:30:43.287Z,15.28
2018-12-06T05:31:45.034Z,15.33
2018-12-06T05:32:46.801Z,15.39
2018-12-06T05:33:49.080Z,15.38
2018-12-06T05:34:50.830Z,15.45
2018-12-06T05:35:52.587Z,15.47
2018-12-06T05:36:54.703Z,15.48
2018-12-06T05:37:56.527Z,15.47
2018-12-06T05:38:58.316Z,15.44
2018-12-06T05:40:00.081Z,15.44
2018-12-06T05:41:01.865Z,15.42
2018-12-06T05:42:03.635Z,15.41
2018-12-06T05:43:05.393Z,15.42
2018-12-06T05:44:07.161Z,15.50
2018-12-06T05:45:10.191Z,15.53
2018-12-06T05:46:11.965Z,15.63
2018-12-06T05:47:13.711Z,15.69
2018-12-06T05:48:15.463Z,15.66
2018-12-06T05:49:17.251Z,15.70
2018-12-06T05:50:19.010Z,15.71
2018-12-06T05:51:20.754Z,15.73
2018-12-06T05:52:22.520Z,15.71
2018-12-06T05:53:24.283Z,15.69
2018-12-06T05:54:26.038Z,15.70
2018-12-06T05:55:29.024Z,15.81
2018-12-06T05:56:30.817Z,15.80
2018-12-06T05:57:32.579Z,15.79
2018-12-06T05:58:34.343Z,15.76
2018-12-06T05:59:36.085Z,15.77
2018-12-06T06:00:38.045Z,15.79
2018-12-06T06:01:39.925Z,15.77
2018-12-06T06:02:41.723Z,15.77
2018-12-06T06:03:43.613Z,15.75
2018-12-06T06:04:45.593Z,15.74
2018-12-06T06:05:47.356Z,15.78
2018-12-06T06:06:49.107Z,15.81
2018-12-06T06:07:50.857Z,15.83
2018-12-06T06:08:52.617Z,15.79
2018-12-06T06:09:54.385Z,15.80
2018-12-06T06:10:56.157Z,15.78
2018-12-06T06:11:57.909Z,15.82
2018-12-06T06:12:59.658Z,15.86
2018-12-06T06:14:01.423Z,15.88
2018-12-06T06:15:03.359Z,15.84
2018-12-06T06:16:05.129Z,15.81
2018-12-06T06:17:06.887Z,15.78
2018-12-06T06:18:08.648Z,15.78
2018-12-06T06:19:10.417Z,15.83
2018-12-06T06:20:12.185Z,15.80
2018-12-06T06:21:13.944Z,15.79
2018-12-06T06:22:15.732Z,15.86
2018-12-06T06:23:17.493Z,15.83
2018-12-06T06:24:19.258Z,15.80
2018-12-06T06:25:21.005Z,15.77
2018-12-06T06:26:22.810Z,15.78
2018-12-06T06:27:26.222Z,15.77
2018-12-06T06:28:28.339Z,15.78
2018-12-06T06:29:30.073Z,15.76
2018-12-06T06:30:31.861Z,15.77
2018-12-06T06:31:33.633Z,15.80
2018-12-06T06:32:36.463Z,15.80
2018-12-06T06:33:38.209Z,15.79
2018-12-06T06:34:39.985Z,15.78
2018-12-06T06:35:41.752Z,15.80
2018-12-06T06:36:43.533Z,15.85
2018-12-06T06:37:45.295Z,15.83
2018-12-06T06:38:47.055Z,15.84
2018-12-06T06:39:48.815Z,15.78
2018-12-06T06:40:50.593Z,15.74
2018-12-06T06:41:52.389Z,15.70
2018-12-06T06:42:54.153Z,15.69
2018-12-06T06:43:55.914Z,15.66
2018-12-06T06:44:57.703Z,15.64
2018-12-06T06:45:59.465Z,15.63
2018-12-06T06:47:01.251Z,15.62
2018-12-06T06:48:03.012Z,15.60
2018-12-06T06:49:04.769Z,15.60
2018-12-06T06:50:06.541Z,15.60
2018-12-06T06:51:08.331Z,15.59
2018-12-06T06:52:10.131Z,15.59
2018-12-06T06:53:12.275Z,15.59
2018-12-06T06:54:14.043Z,15.60
2018-12-06T06:55:15.820Z,15.59
2018-12-06T06:56:17.608Z,15.59
2018-12-06T06:57:19.588Z,15.59
2018-12-06T06:58:21.378Z,15.58
2018-12-06T06:59:26.276Z,15.62
2018-12-06T07:00:27.122Z,15.60
2018-12-06T07:01:28.915Z,15.62
2018-12-06T07:02:30.681Z,15.62
2018-12-06T07:03:32.430Z,15.60
2018-12-06T07:04:34.192Z,15.60
2018-12-06T07:05:35.968Z,15.60
2018-12-06T07:06:37.795Z,15.59
2018-12-06T07:07:39.562Z,15.60
2018-12-06T07:08:42.520Z,15.60
2018-12-06T07:09:44.294Z,15.60
2018-12-06T07:10:47.301Z,15.59
2018-12-06T07:11:49.329Z,15.59
2018-12-06T07:12:51.076Z,15.58
2018-12-06T07:13:52.824Z,15.58
2018-12-06T07:14:54.613Z,15.58
2018-12-06T07:15:56.372Z,15.57
2018-12-06T07:16:58.138Z,15.58
2018-12-06T07:17:59.912Z,15.57
2018-12-06T07:19:01.671Z,15.57
2018-12-06T07:20:03.427Z,15.58
2018-12-06T07:21:05.200Z,15.59
2018-12-06T07:22:07.012Z,15.59
2018-12-06T07:23:08.833Z,15.58
2018-12-06T07:24:11.424Z,15.58
2018-12-06T07:25:13.190Z,15.59
2018-12-06T07:26:14.966Z,15.59
2018-12-06T07:27:16.720Z,15.62
2018-12-06T07:28:18.536Z,15.63
2018-12-06T07:29:20.295Z,15.64
2018-12-06T07:30:22.090Z,15.64
2018-12-06T07:31:23.982Z,15.63
2018-12-06T07:32:25.766Z,15.64
2018-12-06T07:33:27.522Z,15.63
2018-12-06T07:34:29.285Z,15.63
2018-12-06T07:35:36.139Z,15.64
2018-12-06T07:36:37.939Z,15.63
2018-12-06T07:37:39.690Z,15.63
2018-12-06T07:38:41.459Z,15.62
2018-12-06T07:39:43.217Z,15.63
2018-12-06T07:40:45.354Z,15.63
2018-12-06T07:41:47.105Z,15.63
2018-12-06T07:42:48.878Z,15.63
2018-12-06T07:43:50.629Z,15.61
2018-12-06T07:44:52.788Z,15.63
2018-12-06T07:45:58.797Z,15.63
2018-12-06T07:47:01.381Z,15.62
2018-12-06T07:48:03.154Z,15.63
2018-12-06T07:49:04.912Z,15.63
2018-12-06T07:50:06.687Z,15.63
2018-12-06T07:51:08.473Z,15.63
2018-12-06T07:52:11.267Z,15.63
2018-12-06T07:53:13.017Z,15.63
2018-12-06T07:54:14.769Z,15.63
2018-12-06T07:55:16.542Z,15.63
2018-12-06T07:56:18.305Z,15.63
2018-12-06T07:57:20.434Z,15.61
2018-12-06T07:58:22.198Z,15.61
2018-12-06T07:59:23.944Z,15.61
2018-12-06T08:00:25.814Z,15.60
2018-12-06T08:01:27.584Z,15.61
2018-12-06T08:02:29.564Z,15.59
2018-12-06T08:03:31.329Z,15.59
2018-12-06T08:04:33.098Z,15.59
2018-12-06T08:05:34.851Z,15.59
2018-12-06T08:06:36.994Z,15.59
2018-12-06T08:07:38.797Z,15.59
2018-12-06T08:08:40.551Z,15.68
2018-12-06T08:09:42.333Z,15.66
2018-12-06T08:10:44.144Z,15.71
2018-12-06T08:11:45.912Z,15.72
2018-12-06T08:12:47.695Z,15.76
2018-12-06T08:13:50.483Z,15.80
2018-12-06T08:14:52.266Z,15.84
2018-12-06T08:15:54.014Z,15.78
2018-12-06T08:16:55.814Z,15.70
2018-12-06T08:17:57.572Z,15.63
2018-12-06T08:18:59.327Z,15.56
2018-12-06T08:20:01.072Z,15.49
2018-12-06T08:21:02.808Z,15.45
2018-12-06T08:22:04.575Z,15.41
2018-12-06T08:23:06.498Z,15.40
2018-12-06T08:24:08.253Z,15.37
2018-12-06T08:25:09.993Z,15.36
2018-12-06T08:26:12.271Z,15.35
2018-12-06T08:27:14.043Z,15.34
2018-12-06T08:28:15.816Z,15.34
2018-12-06T08:29:17.573Z,15.33
2018-12-06T08:30:19.335Z,15.31
2018-12-06T08:31:21.099Z,15.31
2018-12-06T08:32:26.837Z,15.31
2018-12-06T08:33:28.593Z,15.31
2018-12-06T08:34:30.355Z,15.30
2018-12-06T08:35:32.277Z,15.29
2018-12-06T08:36:34.037Z,15.28
2018-12-06T08:37:35.781Z,15.29
2018-12-06T08:38:37.542Z,15.28
2018-12-06T08:39:39.317Z,15.29
2018-12-06T08:40:41.078Z,15.29
2018-12-06T08:41:42.837Z,15.27
2018-12-06T08:42:45.891Z,15.26
2018-12-06T08:43:48.097Z,15.26
2018-12-06T08:44:49.859Z,15.26
2018-12-06T08:45:51.651Z,15.26
2018-12-06T08:46:53.419Z,15.26
2018-12-06T08:48:00.331Z,15.26
2018-12-06T08:49:03.150Z,15.26
2018-12-06T08:50:05.163Z,15.26
2018-12-06T08:51:07.013Z,15.25
2018-12-06T08:52:09.167Z,15.25
2018-12-06T08:53:10.922Z,15.25
2018-12-06T08:54:12.849Z,15.24
2018-12-06T08:55:14.919Z,15.23
2018-12-06T08:56:16.771Z,15.24
2018-12-06T08:57:18.576Z,15.24
2018-12-06T08:58:20.420Z,15.22
2018-12-06T08:59:28.797Z,15.24
2018-12-06T09:00:31.401Z,15.23
2018-12-06T09:01:33.168Z,15.23
2018-12-06T09:02:34.949Z,15.22
2018-12-06T09:03:36.703Z,15.22
2018-12-06T09:04:38.488Z,15.21
2018-12-06T09:05:40.725Z,15.22
2018-12-06T09:06:42.474Z,15.21
2018-12-06T09:07:44.249Z,15.22
2018-12-06T09:08:46.036Z,15.21
2018-12-06T09:09:47.809Z,15.22
2018-12-06T09:10:51.735Z,15.22
2018-12-06T09:11:54.067Z,15.23
2018-12-06T09:12:55.838Z,15.23
2018-12-06T09:13:57.600Z,15.22
2018-12-06T09:14:59.345Z,15.22
2018-12-06T09:16:01.098Z,15.21
2018-12-06T09:17:02.871Z,15.21
2018-12-06T09:18:05.121Z,15.21
2018-12-06T09:19:06.891Z,15.20
2018-12-06T09:20:08.636Z,15.20
2018-12-06T09:21:10.396Z,15.20
2018-12-06T09:22:12.164Z,15.19
2018-12-06T09:23:13.990Z,15.20
2018-12-06T09:24:15.831Z,15.20
2018-12-06T09:25:21.278Z,15.20
2018-12-06T09:26:22.261Z,15.20
2018-12-06T09:27:25.655Z,15.20
2018-12-06T09:28:27.409Z,15.19
2018-12-06T09:29:29.165Z,15.19
2018-12-06T09:30:30.928Z,15.19
2018-12-06T09:31:32.689Z,15.19
2018-12-06T09:32:34.493Z,15.18
2018-12-06T09:33:36.269Z,15.18
2018-12-06T09:34:38.323Z,15.18
2018-12-06T09:35:40.757Z,15.18
2018-12-06T09:36:42.712Z,15.19
2018-12-06T09:37:44.556Z,15.19
2018-12-06T09:38:46.380Z,15.18
2018-12-06T09:39:48.144Z,15.17
2018-12-06T09:40:49.904Z,15.17
2018-12-06T09:41:53.995Z,15.17
2018-12-06T09:42:55.789Z,15.18
2018-12-06T09:43:57.554Z,15.18
2018-12-06T09:44:59.316Z,15.18
2018-12-06T09:49:44.012Z,15.16
2018-12-06T09:50:45.776Z,15.17
2018-12-06T09:51:47.555Z,15.17
2018-12-06T09:52:49.338Z,15.17
2018-12-06T09:53:55.354Z,15.16
2018-12-06T09:54:57.141Z,15.16
2018-12-06T09:55:58.906Z,15.16
2018-12-06T09:57:00.663Z,15.17
2018-12-06T09:58:02.428Z,15.16
2018-12-06T09:59:04.198Z,15.16
2018-12-06T10:00:05.981Z,15.17
2018-12-06T10:01:08.071Z,15.17
2018-12-06T10:02:09.830Z,15.17
2018-12-06T10:03:11.620Z,15.17
2018-12-06T10:04:13.372Z,15.17
2018-12-06T10:05:15.142Z,15.17
2018-12-06T10:06:16.906Z,15.17
2018-12-06T10:07:18.663Z,15.16
2018-12-06T10:08:20.408Z,15.16
2018-12-06T10:09:22.184Z,15.16
2018-12-06T10:10:24.232Z,15.15
2018-12-06T10:11:26.084Z,15.16
2018-12-06T10:12:31.242Z,15.16
2018-12-06T10:13:33.012Z,15.16
2018-12-06T10:14:34.909Z,15.15
2018-12-06T10:15:36.709Z,15.14
2018-12-06T10:16:38.566Z,15.16
2018-12-06T10:17:40.333Z,15.14
2018-12-06T10:18:42.105Z,15.14
2018-12-06T10:19:43.880Z,15.14
2018-12-06T10:20:45.631Z,15.14
2018-12-06T10:21:47.400Z,15.14
2018-12-06T10:22:49.182Z,15.15
2018-12-06T10:23:50.958Z,15.14
2018-12-06T10:24:52.707Z,15.15
2018-12-06T10:25:54.468Z,15.16
2018-12-06T10:26:56.227Z,15.15
2018-12-06T10:27:58.014Z,15.15
2018-12-06T10:29:00.627Z,15.14
2018-12-06T10:30:02.408Z,15.14
2018-12-06T10:31:08.429Z,15.14
2018-12-06T10:32:10.760Z,15.15
2018-12-06T10:33:12.531Z,15.14
2018-12-06T10:34:14.274Z,15.15
2018-12-06T10:35:16.052Z,15.14
2018-12-06T10:36:18.922Z,15.15
2018-12-06T10:37:20.708Z,15.14
2018-12-06T10:38:22.475Z,15.14
2018-12-06T10:39:24.238Z,15.14
2018-12-06T10:40:25.993Z,15.13
2018-12-06T10:41:27.747Z,15.14
2018-12-06T10:42:29.501Z,15.14
2018-12-06T10:43:31.989Z,15.14
2018-12-06T10:44:33.751Z,15.14
2018-12-06T10:45:37.024Z,15.14
2018-12-06T10:46:38.799Z,15.14
2018-12-06T10:47:43.199Z,15.14
2018-12-06T10:48:44.975Z,15.14
2018-12-06T10:49:46.767Z,15.14
2018-12-06T10:50:48.521Z,15.14
2018-12-06T10:51:50.293Z,15.14
2018-12-06T10:52:52.078Z,15.13
2018-12-06T10:53:55.615Z,15.14
2018-12-06T10:54:57.402Z,15.13
2018-12-06T10:55:59.256Z,15.13
2018-12-06T10:57:01.431Z,15.14
2018-12-06T10:58:07.492Z,15.13
2018-12-06T10:59:09.265Z,15.14
2018-12-06T11:00:15.277Z,15.12
2018-12-06T11:01:18.626Z,15.13
2018-12-06T11:02:25.893Z,15.13
2018-12-06T11:03:31.188Z,15.12
2018-12-06T11:04:35.452Z,15.12
2018-12-06T11:05:37.265Z,15.12
2018-12-06T11:06:39.710Z,15.12
2018-12-06T11:07:41.486Z,15.11
2018-12-06T11:08:43.262Z,15.11
2018-12-06T11:09:45.022Z,15.11
2018-12-06T11:10:46.785Z,15.13
2018-12-06T11:11:48.537Z,15.18
2018-12-06T11:12:50.322Z,15.31
2018-12-06T11:13:52.105Z,15.51
2018-12-06T11:14:53.863Z,15.57
2018-12-06T11:15:55.647Z,15.59
2018-12-06T11:16:57.403Z,15.63
2018-12-06T11:18:00.055Z,15.62
2018-12-06T11:19:02.614Z,15.59
2018-12-06T11:20:04.367Z,15.60
2018-12-06T11:21:06.137Z,15.58
2018-12-06T11:22:07.905Z,15.57
2018-12-06T11:23:09.677Z,15.56
2018-12-06T11:24:11.617Z,15.57
2018-12-06T11:25:13.405Z,15.56
2018-12-06T11:26:15.181Z,15.56
2018-12-06T11:27:20.454Z,15.55
2018-12-06T11:28:22.300Z,15.57
2018-12-06T11:29:24.071Z,15.55
2018-12-06T11:30:25.830Z,15.57
2018-12-06T11:31:27.585Z,15.57
2018-12-06T11:32:29.349Z,15.59
2018-12-06T11:33:31.125Z,15.58
2018-12-06T11:34:38.149Z,15.57
2018-12-06T11:35:40.920Z,15.58
2018-12-06T11:36:42.832Z,15.58
2018-12-06T11:37:44.581Z,15.59
2018-12-06T11:38:46.361Z,15.57
2018-12-06T11:39:48.115Z,15.60
2018-12-06T11:40:50.013Z,15.64
2018-12-06T11:41:51.776Z,15.65
2018-12-06T11:42:53.538Z,15.63
2018-12-06T11:43:55.314Z,15.62
2018-12-06T11:44:57.110Z,15.64
2018-12-06T11:45:58.948Z,15.62
2018-12-06T11:47:00.724Z,15.62
2018-12-06T11:48:02.526Z,15.62
2018-12-06T11:49:04.306Z,15.60
2018-12-06T11:50:06.074Z,15.62
2018-12-06T11:51:08.445Z,15.62
2018-12-06T11:52:10.218Z,15.60
2018-12-06T11:53:11.988Z,15.60
2018-12-06T11:54:13.766Z,15.60
2018-12-06T11:55:15.553Z,15.60
2018-12-06T11:56:17.435Z,15.61
2018-12-06T11:57:19.217Z,15.59
2018-12-06T11:58:21.068Z,15.62
2018-12-06T11:59:22.926Z,15.60
2018-12-06T12:01:33.175Z,15.88
2018-12-06T12:02:34.938Z,15.98
2018-12-06T12:03:36.693Z,16.07
2018-12-06T12:04:38.453Z,16.03
2018-12-06T12:05:40.217Z,15.98
2018-12-06T12:06:41.980Z,15.97
2018-12-06T12:07:43.865Z,16.01
2018-12-06T12:08:45.632Z,15.96
2018-12-06T12:09:47.402Z,15.92
2018-12-06T12:10:49.183Z,15.94
2018-12-06T12:11:50.964Z,15.87
2018-12-06T12:12:52.734Z,15.80
2018-12-06T12:13:54.495Z,15.77
2018-12-06T12:14:56.267Z,15.85
2018-12-06T12:15:58.032Z,16.22
2018-12-06T12:17:04.067Z,16.22
2018-12-06T12:18:05.819Z,16.11
2018-12-06T12:19:07.598Z,16.01
2018-12-06T12:20:09.359Z,15.92
2018-12-06T12:21:11.146Z,15.81
2018-12-06T12:22:12.911Z,15.76
2018-12-06T12:23:14.691Z,15.71
2018-12-06T12:24:17.294Z,15.67
2018-12-06T12:25:19.080Z,15.64
2018-12-06T12:26:20.833Z,15.61
2018-12-06T12:27:22.618Z,15.59
2018-12-06T12:28:24.400Z,15.57
2018-12-06T12:29:26.195Z,15.57
2018-12-06T12:30:27.999Z,15.55
2018-12-06T12:31:29.769Z,15.53
2018-12-06T12:32:31.526Z,15.52
2018-12-06T12:33:33.396Z,15.51
2018-12-06T12:34:35.266Z,15.51
2018-12-06T12:35:37.087Z,15.50
2018-12-06T12:36:38.988Z,15.50
2018-12-06T12:37:40.802Z,15.49
2018-12-06T12:38:42.574Z,15.49
2018-12-06T12:39:44.486Z,15.49
2018-12-06T12:40:46.285Z,15.48
2018-12-06T12:41:48.042Z,15.49
2018-12-06T12:42:50.529Z,15.48
2018-12-06T12:43:52.292Z,15.47
2018-12-06T12:44:54.075Z,15.47
2018-12-06T12:45:55.859Z,15.45
2018-12-06T12:46:57.625Z,15.46
2018-12-06T12:47:59.392Z,15.45
2018-12-06T12:49:01.208Z,15.45
2018-12-06T12:50:03.662Z,15.45
2018-12-06T12:51:05.489Z,15.55
2018-12-06T12:52:07.357Z,15.58
2018-12-06T12:53:09.138Z,15.57
2018-12-06T12:54:10.906Z,15.57
2018-12-06T12:55:16.947Z,15.55
2018-12-06T12:56:18.728Z,15.54
2018-12-06T12:57:20.485Z,15.51
2018-12-06T12:58:22.254Z,15.51
2018-12-06T12:59:24.042Z,15.50
2018-12-06T13:00:26.031Z,15.50
2018-12-06T13:01:27.805Z,15.49
2018-12-06T13:02:29.561Z,15.48
2018-12-06T13:03:31.365Z,15.47
2018-12-06T13:04:33.228Z,15.47
2018-12-06T13:05:35.001Z,15.48
2018-12-06T13:06:36.759Z,15.47
2018-12-06T13:07:38.650Z,15.46
2018-12-06T13:08:41.069Z,15.46
2018-12-06T13:09:42.951Z,15.47
2018-12-06T13:10:44.706Z,15.45
2018-12-06T13:11:46.479Z,15.45
2018-12-06T13:12:48.257Z,15.45
2018-12-06T13:13:50.021Z,15.45
2018-12-06T13:14:51.803Z,15.45
2018-12-06T13:15:58.419Z,15.44
2018-12-06T13:17:00.191Z,15.44
2018-12-06T13:18:01.957Z,15.43
2018-12-06T13:19:03.727Z,15.45
2018-12-06T13:20:05.499Z,15.43
2018-12-06T13:21:07.267Z,15.44
2018-12-06T13:22:09.256Z,15.42
2018-12-06T13:23:11.009Z,15.42